Time;durP1;ratioP1;P1;durP2;ratioP2;P2;SDS_P1;SDS_P2;PMS_P1;PMS_P2;Temp;Humidity;BMP_temperature;BMP_pressure;BME280_temperature;BME280_humidity;BME280_pressure;Samples;Min_cycle;Max_cycle;Signal;HPM_P1;HPM_P2
2022/03/26 00:00:16;;;;;;;103.82;44.00;;;12.20;76.40;;;;;;4939647;28;20043;-66
2022/03/26 00:02:43;;;;;;;104.95;41.95;;;12.20;76.70;;;;;;4949663;28;20062;-66
2022/03/26 00:05:09;;;;;;;109.53;41.97;;;12.20;76.80;;;;;;4949093;28;20431;-66
2022/03/26 00:07:38;;;;;;;99.78;41.88;;;12.20;76.90;;;;;;4949062;28;20073;-66
2022/03/26 00:10:05;;;;;;;102.20;42.05;;;12.10;76.90;;;;;;4941067;28;20040;-66
2022/03/26 00:12:30;;;;;;;102.75;39.92;;;12.20;77.00;;;;;;4942960;28;20111;-66
2022/03/26 00:14:58;;;;;;;97.32;42.10;;;12.10;76.90;;;;;;4930192;28;20127;-66
2022/03/26 00:17:25;;;;;;;100.90;42.53;;;12.00;76.80;;;;;;4930602;28;20051;-66
2022/03/26 00:19:51;;;;;;;111.75;45.88;;;12.00;76.80;;;;;;4970270;28;20075;-66
2022/03/26 00:22:17;;;;;;;98.45;42.05;;;12.00;76.70;;;;;;4953817;28;20047;-66
2022/03/26 00:24:42;;;;;;;100.55;41.80;;;12.00;76.60;;;;;;4936945;28;20051;-66
2022/03/26 00:27:08;;;;;;;105.93;41.92;;;12.00;76.60;;;;;;4942019;28;20035;-66
2022/03/26 00:29:34;;;;;;;109.10;42.55;;;11.90;76.50;;;;;;4929931;28;20471;-66
2022/03/26 00:32:00;;;;;;;102.53;42.47;;;11.90;76.40;;;;;;4944176;28;20141;-66
2022/03/26 00:34:25;;;;;;;94.95;40.80;;;11.90;76.30;;;;;;4949671;28;20489;-66
2022/03/26 00:36:51;;;;;;;91.22;38.75;;;11.90;76.40;;;;;;4948802;28;20051;-66
2022/03/26 00:39:17;;;;;;;95.70;41.20;;;11.90;76.40;;;;;;4948540;28;20028;-66
2022/03/26 00:41:42;;;;;;;102.20;42.50;;;11.80;76.50;;;;;;4949403;28;20039;-66
2022/03/26 00:44:08;;;;;;;98.05;43.08;;;11.80;76.40;;;;;;4951516;28;20035;-66
2022/03/26 00:46:33;;;;;;;113.40;44.38;;;11.70;76.40;;;;;;4952627;28;20035;-66
2022/03/26 00:48:59;;;;;;;114.88;42.83;;;11.70;76.40;;;;;;4952715;28;20113;-67
2022/03/26 00:51:26;;;;;;;107.60;41.80;;;11.70;76.60;;;;;;4951877;28;20035;-66
2022/03/26 00:53:51;;;;;;;110.43;45.15;;;11.70;76.80;;;;;;4952822;28;20039;-66
2022/03/26 00:56:17;;;;;;;99.25;41.45;;;11.70;77.10;;;;;;4952730;28;20474;-66
2022/03/26 00:58:43;;;;;;;100.13;42.10;;;11.60;77.30;;;;;;4951979;28;20043;-66
2022/03/26 01:01:09;;;;;;;101.25;42.45;;;11.60;77.70;;;;;;4939514;28;20467;-66
2022/03/26 01:03:35;;;;;;;103.93;42.17;;;11.60;77.90;;;;;;4951639;28;20038;-66
2022/03/26 01:06:00;;;;;;;109.30;42.38;;;11.50;78.20;;;;;;4938824;28;20467;-66
2022/03/26 01:08:26;;;;;;;121.40;48.13;;;11.50;78.70;;;;;;4952443;28;20145;-66
2022/03/26 01:10:52;;;;;;;112.28;45.88;;;11.40;79.20;;;;;;4951697;28;20051;-66
2022/03/26 01:13:17;;;;;;;116.95;46.97;;;11.40;79.30;;;;;;4941861;28;20115;-66
2022/03/26 01:15:43;;;;;;;119.78;47.40;;;11.40;79.70;;;;;;4951766;28;20047;-66
2022/03/26 01:18:09;;;;;;;113.05;44.90;;;11.30;80.00;;;;;;4979669;28;20476;-66
2022/03/26 01:20:38;;;;;;;124.03;49.45;;;11.30;80.60;;;;;;4955990;28;20070;-66
2022/03/26 01:23:07;;;;;;;132.27;50.03;;;11.30;80.90;;;;;;4944101;28;20052;-66
2022/03/26 01:25:32;;;;;;;130.27;50.47;;;11.30;81.00;;;;;;4978766;28;20645;-66
2022/03/26 01:27:58;;;;;;;135.65;52.28;;;11.20;81.20;;;;;;4999751;28;20207;-66
2022/03/26 01:30:24;;;;;;;128.73;48.80;;;11.20;81.20;;;;;;4943943;28;20467;-66
2022/03/26 01:32:50;;;;;;;126.47;50.65;;;11.20;81.40;;;;;;4950804;28;20031;-66
2022/03/26 01:35:16;;;;;;;133.63;49.40;;;11.20;81.30;;;;;;4951116;28;20089;-66
2022/03/26 01:37:42;;;;;;;129.23;50.13;;;11.20;81.30;;;;;;4946097;28;20031;-66
2022/03/26 01:40:08;;;;;;;126.10;48.70;;;11.20;81.00;;;;;;4944698;28;20058;-66
2022/03/26 01:42:33;;;;;;;134.15;52.55;;;11.20;80.80;;;;;;4950817;28;20044;-66
2022/03/26 01:44:59;;;;;;;127.65;49.30;;;11.20;80.70;;;;;;4951728;28;20069;-66
2022/03/26 01:47:25;;;;;;;129.30;48.35;;;11.20;80.50;;;;;;4936208;28;20379;-66
2022/03/26 01:49:51;;;;;;;124.75;47.47;;;11.10;80.50;;;;;;4952010;28;20130;-66
2022/03/26 01:52:17;;;;;;;119.82;46.78;;;11.20;80.40;;;;;;4942073;28;20184;-66
2022/03/26 01:54:43;;;;;;;121.00;45.85;;;11.10;80.30;;;;;;4939532;28;20089;-66
2022/03/26 01:57:12;;;;;;;118.53;47.40;;;11.10;80.20;;;;;;4950097;28;20035;-66
2022/03/26 01:59:39;;;;;;;112.57;46.72;;;11.10;80.40;;;;;;4941008;28;20024;-66
2022/03/26 02:02:06;;;;;;;105.20;43.17;;;11.00;80.50;;;;;;4948465;28;20046;-66
2022/03/26 02:04:35;;;;;;;102.00;42.60;;;11.00;80.40;;;;;;4941513;28;20027;-66
2022/03/26 02:07:04;;;;;;;108.43;43.30;;;11.00;80.40;;;;;;4951056;28;20043;-66
2022/03/26 02:09:34;;;;;;;106.30;42.25;;;10.90;80.30;;;;;;4951517;28;20051;-66
2022/03/26 02:12:00;;;;;;;108.30;44.25;;;11.00;80.30;;;;;;4951933;28;20040;-66
2022/03/26 02:14:25;;;;;;;113.60;43.80;;;10.90;80.20;;;;;;4950823;28;20626;-66
2022/03/26 02:16:52;;;;;;;112.35;43.40;;;10.90;80.20;;;;;;4949429;28;20035;-66
2022/03/26 02:19:19;;;;;;;108.70;43.80;;;10.90;80.20;;;;;;4963414;28;20038;-66
2022/03/26 02:21:49;;;;;;;106.97;44.65;;;10.80;80.20;;;;;;4949905;28;20074;-66
2022/03/26 02:24:15;;;;;;;109.40;43.97;;;10.80;80.20;;;;;;4951176;28;20039;-66
2022/03/26 02:26:42;;;;;;;114.13;44.17;;;10.80;80.10;;;;;;4940684;28;20394;-66
2022/03/26 02:29:10;;;;;;;109.97;41.85;;;10.80;80.20;;;;;;4950721;28;20019;-66
2022/03/26 02:31:37;;;;;;;103.25;40.03;;;10.80;80.10;;;;;;4951395;28;20035;-66
2022/03/26 02:34:04;;;;;;;94.07;38.53;;;10.70;80.10;;;;;;4951367;28;20027;-66
2022/03/26 02:36:30;;;;;;;96.50;39.05;;;10.70;80.20;;;;;;4949708;28;20046;-66
2022/03/26 02:38:55;;;;;;;90.50;37.05;;;10.60;80.20;;;;;;4949626;28;20027;-66
2022/03/26 02:41:21;;;;;;;103.53;41.40;;;10.60;80.40;;;;;;4951184;29;20766;-66
2022/03/26 02:43:47;;;;;;;94.70;38.30;;;10.60;80.60;;;;;;4944836;28;20039;-66
2022/03/26 02:46:12;;;;;;;107.57;39.88;;;10.50;80.80;;;;;;4932182;28;20081;-66
2022/03/26 02:48:39;;;;;;;100.55;39.72;;;10.50;81.00;;;;;;4931947;28;20032;-66
2022/03/26 02:51:06;;;;;;;103.00;42.28;;;10.40;81.20;;;;;;4943812;28;20037;-66
2022/03/26 02:53:32;;;;;;;118.63;44.63;;;10.40;81.30;;;;;;4950749;28;20043;-66
2022/03/26 02:55:58;;;;;;;116.35;46.53;;;10.40;81.40;;;;;;4952497;28;20054;-66
2022/03/26 02:58:24;;;;;;;114.68;45.83;;;10.30;81.30;;;;;;4938050;28;20023;-66
2022/03/26 03:00:50;;;;;;;112.85;43.72;;;10.30;81.30;;;;;;4950074;28;20545;-66
2022/03/26 03:03:16;;;;;;;116.15;44.75;;;10.30;81.40;;;;;;4950458;28;20039;-66
2022/03/26 03:05:46;;;;;;;122.10;48.10;;;10.30;81.40;;;;;;4950177;28;20134;-66
2022/03/26 03:08:14;;;;;;;112.32;45.20;;;10.30;81.30;;;;;;4950848;28;20039;-66
2022/03/26 03:10:41;;;;;;;116.78;45.13;;;10.30;81.30;;;;;;4950050;28;20035;-66
2022/03/26 03:13:10;;;;;;;123.60;48.28;;;10.30;81.30;;;;;;4944141;28;20047;-66
2022/03/26 03:15:37;;;;;;;106.35;42.75;;;10.30;81.20;;;;;;4948140;28;20509;-66
2022/03/26 03:18:02;;;;;;;122.47;42.38;;;10.30;81.00;;;;;;4968504;28;20076;-66
2022/03/26 03:20:31;;;;;;;128.32;45.65;;;10.20;81.00;;;;;;4959874;28;20043;-66
2022/03/26 03:22:59;;;;;;;117.68;45.22;;;10.20;81.20;;;;;;4949643;28;20047;-66
2022/03/26 03:25:29;;;;;;;127.60;47.33;;;10.20;81.20;;;;;;4949841;28;20522;-66
2022/03/26 03:27:56;;;;;;;125.60;47.13;;;10.20;81.10;;;;;;4950456;28;20032;-66
2022/03/26 03:30:21;;;;;;;120.72;47.45;;;10.20;81.10;;;;;;4949108;28;20062;-66
2022/03/26 03:32:47;;;;;;;121.57;46.17;;;10.10;81.20;;;;;;4942384;28;20035;-66
2022/03/26 03:35:12;;;;;;;100.85;42.88;;;10.10;81.20;;;;;;4949427;28;20031;-66
2022/03/26 03:37:39;;;;;;;113.80;45.10;;;10.10;81.20;;;;;;4938867;28;20039;-66
2022/03/26 03:40:06;;;;;;;113.30;43.40;;;10.10;81.40;;;;;;4930723;28;20028;-66
2022/03/26 03:42:32;;;;;;;114.90;44.88;;;10.00;81.50;;;;;;4943562;28;20151;-66
2022/03/26 03:44:57;;;;;;;126.60;46.33;;;10.00;81.70;;;;;;4931240;28;20875;-66
2022/03/26 03:47:23;;;;;;;116.18;43.45;;;10.00;81.80;;;;;;4942293;28;20023;-66
2022/03/26 03:49:49;;;;;;;115.90;44.42;;;9.90;82.10;;;;;;4950053;28;20123;-66
2022/03/26 03:52:15;;;;;;;121.43;44.28;;;9.90;82.10;;;;;;4950493;28;20118;-66
2022/03/26 03:54:43;;;;;;;124.97;44.20;;;9.90;82.40;;;;;;4949270;28;20031;-66
2022/03/26 03:57:09;;;;;;;120.80;45.78;;;9.80;82.60;;;;;;4950107;28;20118;-66
2022/03/26 03:59:35;;;;;;;122.68;46.63;;;9.80;82.80;;;;;;4951672;28;20031;-66
2022/03/26 04:02:00;;;;;;;114.75;42.55;;;9.80;82.80;;;;;;5005444;28;20047;-66
2022/03/26 04:04:26;;;;;;;109.25;42.20;;;9.80;82.90;;;;;;4976824;28;20058;-66
2022/03/26 04:06:52;;;;;;;119.55;45.08;;;9.70;83.10;;;;;;4949615;28;20113;-66
2022/03/26 04:09:18;;;;;;;116.38;42.22;;;9.70;83.40;;;;;;4984473;28;20021;-67
2022/03/26 04:11:44;;;;;;;125.07;47.35;;;9.70;83.60;;;;;;4949810;28;20047;-66
2022/03/26 04:14:15;;;;;;;117.68;45.47;;;9.60;83.80;;;;;;4949127;28;20085;-66
2022/03/26 04:16:41;;;;;;;125.70;44.75;;;9.60;83.90;;;;;;4950045;28;20081;-66
2022/03/26 04:19:06;;;;;;;118.90;43.33;;;9.60;84.00;;;;;;4954668;28;20060;-66
2022/03/26 04:21:32;;;;;;;120.00;43.75;;;9.60;84.20;;;;;;4975771;28;20508;-66
2022/03/26 04:23:58;;;;;;;115.60;44.47;;;9.50;84.20;;;;;;4967027;28;20496;-67
2022/03/26 04:26:23;;;;;;;139.85;52.00;;;9.50;84.20;;;;;;4953289;28;20081;-66
2022/03/26 04:28:49;;;;;;;132.10;49.83;;;9.50;84.10;;;;;;4939676;28;20039;-66
2022/03/26 04:31:15;;;;;;;123.63;48.28;;;9.60;84.20;;;;;;4953185;28;20070;-66
2022/03/26 04:33:40;;;;;;;114.07;46.67;;;9.60;84.10;;;;;;4952830;28;20104;-66
2022/03/26 04:36:06;;;;;;;127.50;46.90;;;9.60;83.90;;;;;;4983977;28;20023;-66
2022/03/26 04:38:32;;;;;;;118.38;45.72;;;9.60;83.70;;;;;;4972809;28;20026;-66
2022/03/26 04:40:57;;;;;;;117.43;46.20;;;9.50;83.40;;;;;;4973063;28;20035;-66
2022/03/26 04:43:23;;;;;;;117.90;45.53;;;9.60;83.40;;;;;;4970694;28;20030;-66
2022/03/26 04:45:49;;;;;;;112.20;41.00;;;9.60;83.50;;;;;;4979990;28;20050;-66
2022/03/26 04:48:15;;;;;;;114.45;42.60;;;9.50;83.40;;;;;;4987636;28;20510;-66
2022/03/26 04:50:40;;;;;;;115.28;43.70;;;9.50;83.50;;;;;;4960201;28;20030;-66
2022/03/26 04:53:06;;;;;;;107.38;42.78;;;9.40;83.60;;;;;;4960340;28;20035;-66
2022/03/26 04:55:32;;;;;;;119.60;44.20;;;9.40;83.80;;;;;;4995985;28;20021;-66
2022/03/26 04:57:58;;;;;;;105.85;42.35;;;9.40;83.90;;;;;;4981346;28;20055;-66
2022/03/26 05:00:24;;;;;;;104.50;41.13;;;9.40;84.00;;;;;;4979014;28;20164;-66
2022/03/26 05:02:49;;;;;;;106.53;41.70;;;9.30;84.10;;;;;;4972891;28;20042;-66
2022/03/26 05:05:15;;;;;;;109.47;42.15;;;9.30;84.10;;;;;;4960329;28;20094;-66
2022/03/26 05:07:47;;;;;;;104.32;42.72;;;9.30;84.20;;;;;;4970402;28;20114;-66
2022/03/26 05:10:14;;;;;;;109.82;41.20;;;9.20;84.10;;;;;;4986341;28;20486;-65
2022/03/26 05:12:44;;;;;;;107.63;43.08;;;9.20;84.10;;;;;;4959665;28;20037;-65
2022/03/26 05:15:11;;;;;;;118.38;43.38;;;9.20;84.10;;;;;;4951432;28;20391;-65
2022/03/26 05:17:37;;;;;;;93.97;39.53;;;9.20;84.20;;;;;;4973161;28;20089;-65
2022/03/26 05:20:05;;;;;;;98.15;40.58;;;9.20;84.20;;;;;;4949621;28;20058;-65
2022/03/26 05:22:30;;;;;;;104.75;41.65;;;9.20;84.20;;;;;;4945702;28;20051;-65
2022/03/26 05:24:56;;;;;;;103.13;38.08;;;9.20;84.30;;;;;;4958511;28;20027;-65
2022/03/26 05:27:22;;;;;;;102.60;37.42;;;9.20;84.30;;;;;;4973156;28;20039;-65
2022/03/26 05:29:50;;;;;;;107.25;38.70;;;9.10;84.40;;;;;;4961688;28;20032;-65
2022/03/26 05:32:16;;;;;;;97.35;38.63;;;9.10;84.50;;;;;;4958699;28;20495;-65
2022/03/26 05:34:45;;;;;;;81.47;33.90;;;9.10;84.60;;;;;;4956808;28;20054;-65
2022/03/26 05:37:11;;;;;;;79.88;35.42;;;9.10;84.60;;;;;;4971666;28;20038;-65
2022/03/26 05:39:37;;;;;;;79.40;32.35;;;9.00;84.60;;;;;;4968722;28;20523;-65
2022/03/26 05:42:04;;;;;;;85.85;32.45;;;9.00;84.60;;;;;;4959383;28;20047;-65
2022/03/26 05:44:30;;;;;;;120.95;33.83;;;9.00;84.70;;;;;;4952534;28;20054;-65
2022/03/26 05:46:56;;;;;;;138.35;31.55;;;9.00;84.80;;;;;;5007919;28;20029;-65
2022/03/26 05:49:22;;;;;;;183.82;31.67;;;8.90;84.80;;;;;;4939671;28;20062;-65
2022/03/26 05:51:48;;;;;;;176.52;27.85;;;8.90;85.00;;;;;;4938913;28;20075;-65
2022/03/26 05:54:14;;;;;;;242.43;26.88;;;8.80;85.20;;;;;;4951531;28;20066;-65
2022/03/26 05:56:51;;;;;;;84.70;26.63;;;8.80;85.40;;;;;;4951027;28;20062;-65
2022/03/26 05:59:19;;;;;;;74.55;32.13;;;8.80;85.50;;;;;;4950408;28;20144;-65
2022/03/26 06:01:45;;;;;;;79.68;32.33;;;8.80;85.80;;;;;;4947916;28;20054;-65
2022/03/26 06:04:11;;;;;;;85.45;33.03;;;8.80;85.90;;;;;;4932474;28;20044;-65
2022/03/26 06:06:37;;;;;;;76.45;33.10;;;8.70;85.90;;;;;;4931980;28;20123;-65
2022/03/26 06:09:02;;;;;;;71.93;32.20;;;8.70;85.80;;;;;;4986603;28;20033;-64
2022/03/26 06:11:28;;;;;;;76.88;32.63;;;8.70;85.90;;;;;;4958868;28;20040;-65
2022/03/26 06:13:54;;;;;;;83.63;30.73;;;8.70;86.00;;;;;;4931848;28;20110;-65
2022/03/26 06:16:20;;;;;;;93.47;32.70;;;8.70;86.20;;;;;;4949665;28;20081;-65
2022/03/26 06:18:45;;;;;;;55.75;23.23;;;8.70;86.40;;;;;;4951297;28;20039;-65
2022/03/26 06:21:14;;;;;;;70.18;29.13;;;8.70;86.60;;;;;;4949244;28;20035;-65
2022/03/26 06:23:39;;;;;;;72.20;29.17;;;8.60;87.00;;;;;;4951217;28;20043;-65
2022/03/26 06:26:06;;;;;;;69.47;29.35;;;8.60;87.30;;;;;;4950588;28;20023;-65
2022/03/26 06:28:32;;;;;;;70.65;30.58;;;8.60;87.20;;;;;;4950650;28;20062;-65
2022/03/26 06:30:57;;;;;;;67.70;25.90;;;8.60;87.40;;;;;;4951285;28;20367;-65
2022/03/26 06:33:26;;;;;;;62.63;28.38;;;8.60;87.60;;;;;;4951436;28;20126;-65
2022/03/26 06:35:52;;;;;;;70.90;28.90;;;8.60;87.70;;;;;;4932179;28;20031;-65
2022/03/26 06:38:17;;;;;;;56.47;22.02;;;8.60;87.80;;;;;;4944284;28;20039;-65
2022/03/26 06:40:43;;;;;;;64.72;27.40;;;8.60;88.00;;;;;;4950086;28;20053;-65
2022/03/26 06:43:09;;;;;;;76.80;29.92;;;8.60;88.20;;;;;;4950416;28;20078;-65
2022/03/26 06:45:35;;;;;;;79.38;31.20;;;8.60;88.40;;;;;;4944430;28;20050;-65
2022/03/26 06:48:01;;;;;;;74.90;29.63;;;8.60;88.40;;;;;;4944734;28;20038;-65
2022/03/26 06:50:28;;;;;;;80.57;36.08;;;8.60;88.40;;;;;;4949736;28;20036;-65
2022/03/26 06:52:55;;;;;;;78.22;35.80;;;8.60;88.40;;;;;;4937700;28;20035;-65
2022/03/26 06:55:24;;;;;;;77.43;31.65;;;8.60;88.60;;;;;;4939211;28;20034;-65
2022/03/26 06:57:50;;;;;;;82.38;34.42;;;8.70;88.70;;;;;;4949759;28;20399;-65
2022/03/26 07:00:16;;;;;;;81.28;36.42;;;8.70;88.70;;;;;;4950671;28;20054;-65
2022/03/26 07:02:43;;;;;;;74.40;29.38;;;8.70;88.80;;;;;;4949293;28;20063;-65
2022/03/26 07:05:09;;;;;;;96.03;34.47;;;8.70;88.80;;;;;;4951008;28;20039;-65
2022/03/26 07:07:35;;;;;;;52.45;22.00;;;8.80;89.00;;;;;;4950370;28;20387;-65
2022/03/26 07:10:02;;;;;;;73.65;28.75;;;8.80;88.90;;;;;;4984392;28;20046;-65
2022/03/26 07:12:29;;;;;;;72.07;28.13;;;8.80;89.00;;;;;;4934155;28;20083;-65
2022/03/26 07:14:55;;;;;;;76.45;31.25;;;8.80;89.10;;;;;;4941677;28;20035;-65
2022/03/26 07:17:20;;;;;;;65.53;25.98;;;8.80;89.30;;;;;;4950154;28;20509;-65
2022/03/26 07:19:46;;;;;;;78.60;33.38;;;8.80;89.40;;;;;;4950659;28;20031;-65
2022/03/26 07:22:12;;;;;;;83.60;31.48;;;8.80;89.60;;;;;;5011547;28;20079;-65
2022/03/26 07:24:37;;;;;;;94.18;35.45;;;8.80;89.70;;;;;;4955073;28;20027;-65
2022/03/26 07:27:03;;;;;;;84.15;34.53;;;8.90;89.90;;;;;;4950411;28;20043;-65
2022/03/26 07:29:29;;;;;;;87.88;37.55;;;8.90;90.00;;;;;;4950157;28;20053;-65
2022/03/26 07:31:55;;;;;;;97.82;38.40;;;9.00;90.10;;;;;;4949765;28;20097;-65
2022/03/26 07:34:22;;;;;;;109.63;40.63;;;9.00;90.30;;;;;;4950162;28;20633;-65
2022/03/26 07:36:48;;;;;;;96.05;36.30;;;9.00;90.40;;;;;;4950460;28;20035;-65
2022/03/26 07:39:15;;;;;;;97.75;40.22;;;9.10;90.70;;;;;;4942641;28;20028;-65
2022/03/26 07:41:41;;;;;;;124.03;46.25;;;9.20;90.70;;;;;;4944464;28;20043;-66
2022/03/26 07:44:07;;;;;;;112.13;45.95;;;9.20;91.00;;;;;;4950495;28;20027;-65
2022/03/26 07:46:33;;;;;;;110.15;43.15;;;9.30;91.40;;;;;;4949408;28;20039;-65
2022/03/26 07:48:59;;;;;;;97.20;39.83;;;9.30;91.70;;;;;;4950146;28;20110;-67
2022/03/26 07:51:25;;;;;;;104.10;40.05;;;9.40;91.70;;;;;;4947087;28;20467;-64
2022/03/26 07:53:51;;;;;;;113.93;42.38;;;9.40;91.80;;;;;;4939036;28;20164;-64
2022/03/26 07:56:16;;;;;;;114.28;45.58;;;9.50;92.00;;;;;;4946702;28;20395;-68
2022/03/26 07:58:43;;;;;;;124.40;49.80;;;9.50;92.50;;;;;;4959041;28;20035;-65
2022/03/26 08:01:09;;;;;;;121.43;46.50;;;9.60;93.00;;;;;;4943518;28;20051;-64
2022/03/26 08:03:35;;;;;;;125.05;47.28;;;9.70;93.40;;;;;;4968284;28;20035;-65
2022/03/26 08:06:01;;;;;;;163.40;54.40;;;9.80;93.50;;;;;;4964824;28;20028;-65
2022/03/26 08:08:27;;;;;;;124.10;42.92;;;9.80;93.80;;;;;;4987907;28;20036;-65
2022/03/26 08:10:53;;;;;;;115.75;43.17;;;9.80;93.80;;;;;;4986940;28;20073;-65
2022/03/26 08:13:18;;;;;;;133.00;49.58;;;9.90;94.00;;;;;;4961621;28;20037;-65
2022/03/26 08:15:44;;;;;;;101.97;35.78;;;10.00;94.00;;;;;;4974234;28;20037;-64
2022/03/26 08:18:09;;;;;;;131.05;49.80;;;10.00;93.80;;;;;;4973870;28;20039;-64
2022/03/26 08:20:35;;;;;;;106.97;43.75;;;10.10;94.10;;;;;;4955799;28;20061;-66
2022/03/26 08:23:01;;;;;;;108.43;42.33;;;10.10;94.30;;;;;;4987704;28;20092;-65
2022/03/26 08:28:12;;;;;;;104.75;41.88;;;10.20;94.50;;;;;;4958333;28;20035;-65
2022/03/26 08:30:38;;;;;;;110.38;40.15;;;10.20;94.80;;;;;;4956996;28;20023;-66
2022/03/26 08:33:05;;;;;;;108.25;37.85;;;10.30;95.30;;;;;;4974507;28;20034;-66
2022/03/26 08:35:41;;;;;;;92.25;38.90;;;10.40;94.90;;;;;;4987117;28;20047;-66
2022/03/26 08:38:07;;;;;;;99.85;40.90;;;10.50;95.20;;;;;;4946795;28;20398;-66
2022/03/26 08:40:34;;;;;;;107.05;42.05;;;10.50;95.20;;;;;;4959175;28;20118;-67
2022/03/26 08:42:59;;;;;;;83.35;32.47;;;10.60;95.10;;;;;;4970425;28;20095;-66
2022/03/26 08:45:29;;;;;;;69.85;29.45;;;10.60;95.00;;;;;;4982285;28;20041;-69
2022/03/26 08:47:56;;;;;;;80.47;32.00;;;10.70;94.30;;;;;;4978797;28;20043;-66
2022/03/26 08:50:23;;;;;;;88.72;38.42;;;10.70;94.40;;;;;;4973320;28;20030;-66
2022/03/26 08:52:49;;;;;;;84.20;32.35;;;10.80;94.80;;;;;;4983642;28;20034;-66
2022/03/26 08:55:16;;;;;;;74.72;30.45;;;10.80;94.70;;;;;;4981418;28;20044;-66
2022/03/26 08:57:43;;;;;;;66.70;29.80;;;10.90;95.10;;;;;;4981195;28;20035;-66
2022/03/26 09:00:10;;;;;;;77.82;33.97;;;11.00;95.10;;;;;;4988170;28;20097;-66
2022/03/26 09:02:36;;;;;;;62.10;29.63;;;11.10;95.30;;;;;;4994359;28;20130;-66
2022/03/26 09:05:02;;;;;;;46.55;22.83;;;11.10;95.20;;;;;;4981223;28;20033;-65
2022/03/26 09:07:27;;;;;;;62.40;25.80;;;11.10;95.10;;;;;;4966402;28;20028;-66
2022/03/26 09:09:53;;;;;;;37.08;16.08;;;11.20;94.90;;;;;;4984987;28;20052;-66
2022/03/26 09:12:19;;;;;;;48.08;19.60;;;11.20;94.60;;;;;;4994241;28;20033;-66
2022/03/26 09:14:44;;;;;;;43.25;21.42;;;11.30;94.30;;;;;;5000581;28;20037;-66
2022/03/26 09:17:10;;;;;;;50.53;24.05;;;11.40;93.70;;;;;;5017407;28;20028;-66
2022/03/26 09:19:36;;;;;;;42.58;17.58;;;11.40;93.90;;;;;;4993589;28;20045;-66
2022/03/26 09:22:03;;;;;;;44.95;18.42;;;11.50;93.60;;;;;;5001234;28;20045;-66
2022/03/26 09:24:28;;;;;;;47.53;18.42;;;11.50;93.40;;;;;;5004934;28;20041;-65
2022/03/26 09:26:54;;;;;;;36.70;17.52;;;11.60;93.30;;;;;;5029511;28;20033;-66
2022/03/26 09:29:20;;;;;;;31.90;14.23;;;11.70;93.20;;;;;;4997758;28;20044;-67
2022/03/26 09:31:46;;;;;;;43.88;15.60;;;11.70;93.00;;;;;;4961745;28;20028;-66
2022/03/26 09:34:12;;;;;;;31.08;14.95;;;11.80;93.00;;;;;;4974569;28;20033;-68
2022/03/26 09:36:38;;;;;;;29.85;14.32;;;11.90;92.50;;;;;;4963604;28;20015;-68
2022/03/26 09:39:03;;;;;;;36.03;15.75;;;11.90;92.30;;;;;;4943443;28;20031;-66
2022/03/26 09:41:33;;;;;;;22.27;12.27;;;11.90;92.30;;;;;;4995253;28;20076;-65
2022/03/26 09:43:59;;;;;;;22.33;10.93;;;12.00;92.20;;;;;;5002651;28;20095;-66
2022/03/26 09:46:25;;;;;;;22.98;11.73;;;12.10;92.00;;;;;;5012235;28;20114;-66
2022/03/26 09:48:51;;;;;;;24.20;9.88;;;12.20;91.90;;;;;;5031079;28;20472;-66
2022/03/26 09:51:22;;;;;;;22.10;10.10;;;12.20;91.80;;;;;;5019012;28;20033;-66
2022/03/26 09:53:50;;;;;;;25.80;11.95;;;12.20;91.80;;;;;;5018290;28;20090;-66
2022/03/26 09:56:20;;;;;;;28.90;12.63;;;12.20;91.80;;;;;;5030799;28;20034;-66
2022/03/26 09:58:46;;;;;;;24.85;10.70;;;12.30;91.80;;;;;;4995069;28;20072;-66
2022/03/26 10:01:12;;;;;;;26.88;13.65;;;12.40;91.60;;;;;;5017492;28;20103;-67
2022/03/26 10:03:41;;;;;;;27.90;14.77;;;12.50;91.60;;;;;;4984773;28;20112;-66
2022/03/26 10:06:07;;;;;;;38.67;12.70;;;12.50;91.60;;;;;;4994973;28;20033;-66
2022/03/26 10:08:38;;;;;;;26.35;10.25;;;12.50;91.60;;;;;;5018853;28;20029;-67
2022/03/26 10:11:06;;;;;;;22.05;8.80;;;12.60;91.50;;;;;;5030293;28;20041;-66
2022/03/26 10:13:46;;;;;;;28.73;13.25;;;12.60;91.60;;;;;;5012994;28;20053;-66
2022/03/26 10:16:14;;;;;;;30.00;15.07;;;12.60;91.60;;;;;;5021506;28;20028;-66
2022/03/26 10:18:45;;;;;;;15.20;8.15;;;12.60;91.50;;;;;;5031003;28;20029;-67
2022/03/26 10:21:16;;;;;;;10.77;4.38;;;12.70;91.70;;;;;;5028698;28;20388;-66
2022/03/26 10:23:43;;;;;;;16.83;7.72;;;12.70;91.60;;;;;;4951318;28;20074;-67
2022/03/26 10:26:17;;;;;;;14.18;5.80;;;12.80;91.50;;;;;;5020858;28;20486;-67
2022/03/26 10:28:53;;;;;;;9.45;4.32;;;12.90;91.40;;;;;;5013002;28;20124;-66
2022/03/26 10:34:09;;;;;;;15.65;6.57;;;13.10;91.10;;;;;;5013042;28;20087;-66
2022/03/26 10:36:43;;;;;;;9.88;4.72;;;13.10;91.00;;;;;;5007890;28;20041;-66
2022/03/26 10:39:25;;;;;;;11.30;4.78;;;13.20;91.00;;;;;;5010990;28;20037;-66
2022/03/26 10:41:55;;;;;;;9.20;5.05;;;13.30;90.90;;;;;;5021447;28;20536;-66
2022/03/26 10:44:29;;;;;;;12.30;4.88;;;13.40;90.80;;;;;;5017302;28;20120;-66
2022/03/26 10:46:59;;;;;;;9.48;4.65;;;13.50;90.60;;;;;;5019072;28;20033;-66
2022/03/26 10:49:36;;;;;;;7.80;3.90;;;13.50;90.50;;;;;;5025972;28;20029;-65
2022/03/26 10:52:15;;;;;;;8.77;5.05;;;13.60;90.50;;;;;;5004690;28;20168;-65
2022/03/26 10:54:46;;;;;;;10.00;4.95;;;13.70;90.50;;;;;;4950226;28;20055;-65
2022/03/26 10:57:12;;;;;;;9.38;5.43;;;13.70;90.30;;;;;;4955256;28;20039;-65
2022/03/26 10:59:37;;;;;;;13.32;6.35;;;13.80;90.50;;;;;;4950465;28;20038;-65
2022/03/26 11:02:03;;;;;;;8.63;4.13;;;13.80;90.10;;;;;;4955594;28;20390;-65
2022/03/26 11:04:29;;;;;;;10.35;5.90;;;13.90;90.30;;;;;;5007481;28;20595;-65
2022/03/26 11:06:56;;;;;;;9.00;4.47;;;13.90;90.60;;;;;;4957642;28;20148;-66
2022/03/26 11:09:24;;;;;;;7.90;3.85;;;13.80;90.50;;;;;;4991348;28;20065;-65
2022/03/26 11:11:51;;;;;;;7.43;3.92;;;13.90;90.40;;;;;;4940828;28;20035;-66
2022/03/26 11:14:22;;;;;;;12.60;4.88;;;14.00;90.60;;;;;;4958083;28;20539;-66
2022/03/26 11:17:14;;;;;;;10.70;5.10;;;14.00;90.60;;;;;;5009983;28;20042;-66
2022/03/26 11:19:54;;;;;;;9.80;4.32;;;14.10;90.60;;;;;;4993209;28;20099;-67
2022/03/26 11:22:26;;;;;;;12.52;4.72;;;14.20;90.70;;;;;;4972558;28;20057;-66
2022/03/26 11:25:16;;;;;;;7.60;4.35;;;14.20;90.80;;;;;;4948377;28;20133;-67
2022/03/26 11:28:15;;;;;;;12.52;5.18;;;14.20;90.80;;;;;;4949599;28;20039;-66
2022/03/26 11:30:59;;;;;;;10.32;4.70;;;14.30;90.60;;;;;;4949407;28;20036;-66
2022/03/26 11:33:32;;;;;;;8.23;4.47;;;14.40;90.60;;;;;;4950613;28;20031;-67
2022/03/26 11:36:00;;;;;;;11.07;5.65;;;14.50;90.40;;;;;;4950232;28;20062;-67
2022/03/26 11:38:29;;;;;;;13.48;5.32;;;14.50;90.40;;;;;;4949844;28;20077;-67
2022/03/26 11:41:03;;;;;;;12.77;4.65;;;14.60;90.40;;;;;;4949783;28;20657;-67
2022/03/26 11:43:44;;;;;;;11.43;4.35;;;14.70;90.40;;;;;;4984983;28;20079;-67
2022/03/26 11:51:50;;;;;;;15.20;5.20;;;14.90;90.20;;;;;;4954251;28;20042;-65
2022/03/26 11:54:18;;;;;;;6.85;3.22;;;14.90;90.10;;;;;;4949875;28;20031;-65
2022/03/26 11:56:46;;;;;;;6.40;3.38;;;15.00;90.10;;;;;;4981926;28;20036;-65
2022/03/26 11:59:18;;;;;;;7.93;3.92;;;15.00;90.20;;;;;;4950847;28;20479;-65
2022/03/26 12:01:49;;;;;;;9.80;3.95;;;15.00;90.20;;;;;;4950957;28;20140;-69
2022/03/26 12:04:28;;;;;;;8.23;3.58;;;15.00;90.30;;;;;;5030010;28;20029;-66
2022/03/26 12:06:58;;;;;;;8.25;3.78;;;15.00;90.20;;;;;;4949772;28;20031;-67
2022/03/26 12:09:29;;;;;;;8.88;4.40;;;15.00;90.30;;;;;;4981550;28;20047;-67
2022/03/26 12:12:10;;;;;;;8.55;4.07;;;15.00;90.40;;;;;;4949304;28;20070;-67
2022/03/26 12:15:10;;;;;;;9.88;3.30;;;15.00;90.40;;;;;;4942789;28;20090;-67
2022/03/26 12:17:46;;;;;;;10.90;4.25;;;15.10;90.40;;;;;;4994421;28;20044;-67
2022/03/26 12:20:28;;;;;;;9.63;3.70;;;15.10;90.30;;;;;;5010168;28;20107;-67
2022/03/26 12:23:11;;;;;;;12.60;4.15;;;15.10;90.30;;;;;;5020873;28;20049;-67
2022/03/26 12:25:50;;;;;;;6.95;3.30;;;15.10;90.50;;;;;;5015509;28;20033;-70
2022/03/26 12:28:26;;;;;;;6.22;3.08;;;15.20;90.30;;;;;;5017146;28;20039;-67
2022/03/26 12:30:57;;;;;;;6.57;2.75;;;15.20;90.20;;;;;;5004716;28;20163;-67
2022/03/26 12:33:24;;;;;;;8.57;3.67;;;15.30;90.40;;;;;;5004795;28;20026;-67
2022/03/26 12:35:52;;;;;;;7.78;3.28;;;15.20;90.40;;;;;;4992513;28;20034;-66
2022/03/26 12:38:19;;;;;;;7.25;3.28;;;15.30;90.40;;;;;;5019675;28;20378;-66
2022/03/26 12:40:57;;;;;;;7.07;3.00;;;15.30;90.40;;;;;;5017268;28;20095;-67